La Mata - P.N. Sant Llorenç del Munt i l'Obac





Hora UTC 20:00
Temperatura 0.5 ºC
Humitat 85.9 %
Pressió 1000.2 hPa
Pluja 0.1 mm
Velocitat vent 10.1 km/h
Direcció vent WNW
Radiació solar 0.1 W/m²
Fuel 195.4 %

Dades diàries 2021-11-27



Hora UTC (hivern +1h; estiu +2h)
Temperatura (ºC) Humitat (%) Pressió (hPa) Velocitat vent (km/h) Precipitació (mm) Fuel (%) Radiació solar (W/m²)
Hora UTC Aire Humitat Pressió Vel. Dir. Vel. Max Dir. Intent. màx 5 min. Fuel Rad. Sol.
00:05 -0.5 96.1 1001.7 9.2 NNE 9.2 NNW 0.0 269.8 0.1
00:10 -0.5 96.1 1001.6 6.4 NNE 18.7 N 0.0 270.2 0.1
00:15 -0.5 96.2 1001.6 3.8 NNE 13.1 NNE 0.0 270.7 0.1
00:20 -0.5 96.3 1001.3 5.0 NNW 18.7 NW 0.0 271.1 0.1
00:25 -0.5 96.4 1001.4 4.7 NE 12.0 NNW 0.0 271.5 0.1
00:30 -0.5 96.4 1001.4 4.1 ENE 15.9 N 0.0 271.8 0.1
00:35 -0.4 96.5 1001.3 5.9 N 16.2 NNW 0.0 272.1 0.1
00:40 -0.4 96.5 1001.3 7.2 NNE 16.9 NNW 0.0 272.3 0.1
00:45 -0.4 96.4 1001.2 5.0 NNE 12.7 NNE 0.0 272.5 0.1
00:50 -0.5 96.4 1001.2 5.9 NNE 15.2 N 0.0 272.8 0.1
00:55 -0.6 96.3 1001.0 5.1 NNE 10.9 N 0.0 263.0 0.1
01:00 -0.6 96.4 1001.0 7.5 N 13.1 N 0.0 249.2 0.1
01:05 -0.5 96.5 1000.9 7.6 N 18.0 N 0.0 236.4 0.1
01:10 -0.6 96.5 1001.0 8.2 N 16.2 N 0.0 223.7 0.1
01:15 -0.6 96.5 1000.9 5.4 N 15.5 NNE 0.0 213.7 0.1
01:20 -0.6 96.5 1000.8 6.0 N 13.8 NNE 0.0 206.2 0.1
01:25 -0.6 96.5 1000.8 6.9 N 12.4 N 0.0 201.2 0.1
01:30 -0.6 96.6 1000.7 8.7 N 16.6 NNW 0.0 198.7 0.1
01:35 -0.6 96.6 1000.6 7.6 N 15.2 NNW 0.0 197.4 0.1
01:40 -0.6 96.6 1000.5 6.2 N 16.6 NNW 0.0 196.2 0.1
01:45 -0.6 96.6 1000.4 7.2 N 17.3 NNE 0.0 195.5 0.1
01:50 -0.6 96.7 1000.4 7.3 N 15.9 NNW 0.0 194.3 0.1
01:55 -0.6 96.7 1000.4 5.7 N 15.2 N 0.0 193.5 0.1
02:00 -0.6 96.7 1000.4 6.6 N 19.1 NNE 0.0 194.1 0.1
02:05 -0.5 96.9 1000.3 6.2 N 17.6 NW 0.0 195.5 0.1
02:10 -0.4 96.9 1000.3 4.3 NNW 16.2 WNW 0.0 196.7 0.1
02:15 -0.4 96.9 1000.3 6.8 NNW 19.1 N 0.0 197.3 0.1
02:20 -0.4 96.9 1000.3 7.9 N 21.9 NNW 0.0 197.3 0.1
02:25 -0.4 96.8 1000.3 9.6 N 16.6 N 0.0 197.0 0.1
02:30 -0.4 96.8 1000.2 7.6 N 20.1 NW 0.0 197.0 0.1
02:35 -0.4 96.9 1000.1 4.9 NNW 13.1 NW 0.0 197.8 0.1
02:40 -0.3 97.0 1000.0 5.3 NNW 22.2 WNW 0.0 199.3 0.1
02:45 -0.2 97.1 999.9 6.1 NW 21.9 WSW 0.0 201.4 0.1
02:50 -0.1 97.1 999.9 6.4 NNW 22.9 NNW 0.0 203.9 0.1
02:55 -0.1 97.1 999.8 5.7 NNW 22.9 N 0.0 206.7 0.1
03:00 0.0 97.1 999.7 7.5 NW 21.9 NNW 0.0 209.7 0.1
03:05 0.0 97.1 999.7 5.8 NNW 26.1 WNW 0.0 212.7 0.1
03:10 0.1 97.1 999.7 4.0 N 14.5 NNW 0.0 215.6 0.1
03:15 0.1 97.1 999.5 7.2 NW 20.8 N 0.0 218.5 0.1
03:20 0.1 97.1 999.4 6.0 NW 19.4 WNW 0.0 220.7 0.1
03:25 0.1 97.0 999.4 7.0 NW 23.3 WNW 0.0 222.0 0.1
03:30 0.1 97.0 999.3 5.4 NW 19.8 NW 0.0 224.4 0.1
03:35 0.1 97.1 999.2 5.2 NNW 17.6 NNE 0.0 226.9 0.1
03:40 0.1 97.1 999.1 4.0 NE 16.9 N 0.0 229.3 0.1
03:45 0.1 97.1 999.0 6.7 N 25.8 N 0.0 232.3 0.1
03:50 0.2 97.1 998.9 3.5 ENE 17.3 N 0.0 235.2 0.1
03:55 0.2 97.2 998.9 4.4 NE 19.8 W 0.0 239.1 0.1
04:00 0.2 97.2 998.9 4.5 NNE 16.9 NNW 0.0 242.0 0.1
04:05 0.2 97.2 998.8 4.4 N 20.8 NE 0.0 245.3 0.1
04:10 0.2 97.2 998.8 6.1 NNW 19.4 NW 0.0 248.3 0.1
04:15 0.2 97.2 998.8 5.7 WNW 22.2 NW 0.0 251.3 0.1
04:20 0.2 97.2 998.8 3.6 SE 11.3 N 0.0 254.7 0.1
04:25 0.3 97.3 998.8 6.0 NW 19.4 SSW 0.0 258.6 0.1
04:30 0.3 97.3 998.7 8.1 NW 26.5 WNW 0.0 264.6 0.1
04:35 0.3 97.3 998.7 6.2 NW 20.8 NNW 0.0 268.4 0.1
04:40 0.3 97.2 998.6 9.3 NW 22.6 NNE 0.0 271.9 0.1
04:45 0.3 97.2 998.6 6.4 NW 24.7 N 0.0 275.0 0.1
04:50 0.3 97.2 998.6 10.1 WNW 31.1 NW 0.0 277.6 0.1
04:55 0.3 97.3 998.4 4.3 WNW 15.9 W 0.0 280.0 0.1
05:00 0.3 97.3 998.4 4.5 ESE 14.5 NNW 0.0 281.3 0.1
05:05 0.4 97.3 998.3 6.1 NW 20.5 WSW 0.0 282.2 0.1
05:10 0.4 97.3 998.2 7.6 WNW 22.2 NW 0.0 283.0 0.1
05:15 0.4 97.4 998.3 7.0 WNW 25.4 W 0.0 283.6 0.1
05:20 0.4 97.4 998.3 5.6 N 16.9 WSW 0.0 284.5 0.1
05:25 0.5 97.4 998.2 6.9 WNW 20.8 NNW 0.0 285.0 0.1
05:30 0.5 97.4 998.1 6.8 NNW 19.4 W 0.0 285.4 0.1
05:35 0.5 97.4 998.1 6.2 WNW 20.8 W 0.0 285.6 0.1
05:40 0.5 97.4 998.0 5.5 NNW 18.0 NW 0.0 285.7 0.1
05:45 0.6 97.4 998.0 7.4 N 21.5 NW 0.0 285.8 0.1
05:50 0.6 97.4 997.9 3.8 NE 16.2 NNE 0.0 285.8 0.1
05:55 0.6 97.4 997.9 5.4 SSW 20.8 WSW 0.0 285.8 0.1
06:00 0.7 97.5 997.8 6.8 W 19.8 W 0.0 285.9 0.1
06:05 0.7 97.5 997.8 4.8 N 14.8 W 0.0 285.9 0.1
06:10 0.7 97.5 997.7 6.2 NW 19.1 NNW 0.0 285.8 0.1
06:15 0.6 97.4 997.7 4.8 NW 22.6 WNW 0.0 285.8 0.1
06:20 0.7 97.4 997.6 5.0 NE 15.9 NW 0.0 285.8 0.1
06:25 0.7 97.4 997.6 5.2 NNE 22.2 NW 0.0 285.8 0.1
06:30 0.7 97.5 997.6 6.1 E 20.8 W 0.0 285.8 0.1
06:35 0.7 97.5 997.5 5.5 ESE 15.9 NNW 0.0 285.8 0.1
06:40 0.8 97.5 997.6 5.6 NW 19.4 NW 0.0 286.3 0.2
06:45 0.8 97.5 997.6 5.4 NW 20.1 W 0.0 287.7 0.2
06:50 0.9 97.6 997.6 7.3 ESE 24.3 W 0.0 288.8 0.3
06:55 0.9 97.6 997.6 5.4 W 22.2 WNW 0.1 289.6 0.5
07:00 1.0 97.6 997.6 4.7 SSE 12.7 NNW 0.0 290.6 0.7
07:05 1.0 97.6 997.7 6.4 W 17.3 WNW 0.0 290.8 0.9
07:10 1.1 97.7 997.7 10.8 W 26.5 NNW 0.0 291.5 1.6
07:15 1.2 97.7 997.7 13.1 WNW 31.4 NW 0.0 291.6 3.7
07:20 1.2 97.7 997.7 13.8 WNW 34.6 W 0.0 291.4 5.9
07:25 1.2 97.7 997.8 7.9 WNW 25.8 NNW 0.0 291.2 6.3
07:30 1.2 97.6 997.7 7.7 W 21.5 NNW 0.0 291.1 6.1
07:35 1.2 97.6 997.7 8.1 W 20.5 WSW 0.0 290.9 8.8
07:40 1.2 97.6 997.7 7.0 W 27.9 NNW 0.0 290.9 13.8
07:45 1.2 97.6 997.7 9.6 WNW 27.2 WNW 0.0 290.8 16.1
07:50 1.2 97.6 997.7 11.4 WNW 33.2 NW 0.0 290.4 18.3
07:55 1.2 97.6 997.7 8.7 WNW 28.2 NNW 0.0 290.0 20.1
08:00 1.2 97.6 997.7 10.8 W 40.2 WNW 0.0 289.7 21.9
08:05 1.2 97.6 997.8 8.7 WNW 27.2 NNW 0.0 289.3 24.2
08:10 1.2 97.5 997.7 10.9 WNW 34.6 WNW 0.0 288.8 30.2
08:15 1.2 97.6 997.7 7.0 N 25.8 SW 0.0 288.4 29.6
08:20 1.2 97.5 997.7 8.6 W 29.6 WNW 0.0 287.9 27.8
08:25 1.2 97.6 997.8 4.7 WNW 20.8 NW 0.0 287.5 28.3
08:30 1.2 97.5 997.6 6.8 NNW 22.2 N 0.0 287.1 31.0
08:35 1.2 97.5 997.6 7.7 NW 25.8 WSW 0.0 286.6 39.2
08:40 1.2 97.5 997.6 7.9 NW 27.5 NW 0.0 286.2 50.6
08:45 1.2 97.5 997.6 8.3 NNW 25.8 NNW 0.0 285.6 42.9
08:50 1.2 97.5 997.5 9.7 NW 34.9 WNW 0.0 285.1 52.9
08:55 1.2 97.5 997.5 10.0 WNW 27.5 N 0.0 284.5 47.2
09:00 1.2 97.6 997.5 8.3 WNW 24.0 WNW 0.0 284.0 68.1
09:05 1.3 97.6 997.6 6.3 W 22.2 WNW 0.0 283.4 60.3
09:10 1.3 97.6 997.6 10.4 NW 30.7 NW 0.0 282.7 67.6
09:15 1.4 97.6 997.7 7.3 W 24.0 N 0.0 282.1 85.5
09:20 1.4 97.7 997.7 6.8 NW 20.8 NW 0.0 281.4 106.0
09:25 1.5 97.7 997.8 8.4 WNW 25.8 WNW 0.0 280.5 151.3
09:30 1.6 97.7 997.7 5.6 W 17.6 WNW 0.0 279.5 182.1
09:35 1.8 97.8 997.7 6.0 SSE 26.1 WNW 0.0 278.4 260.7
09:40 2.0 97.9 997.9 5.3 NW 15.9 NW 0.0 276.9 170.8
09:45 2.0 97.9 997.9 3.4 SSE 12.7 WSW 0.0 275.2 57.6
09:50 1.9 97.8 998.0 4.4 NNE 17.3 NNW 0.0 274.2 46.7
09:55 1.9 97.4 998.0 4.2 NNW 19.1 N 0.0 273.5 47.8
10:00 1.8 97.2 997.9 5.7 NW 18.7 NNW 0.0 272.9 60.3
10:05 1.9 97.3 997.9 5.3 SE 17.3 WNW 0.0 272.4 73.7
10:10 1.9 97.4 997.9 6.1 NNW 18.4 SW 0.0 271.7 81.3
10:15 1.9 97.4 997.8 8.4 W 25.8 W 0.0 270.9 80.9
10:20 2.0 97.4 997.8 6.5 ENE 18.0 SSW 0.0 270.2 55.4
10:25 2.0 97.4 997.8 8.8 W 28.6 WNW 0.0 269.5 49.6
10:30 2.0 97.4 997.8 10.9 WNW 34.6 WNW 0.0 268.8 54.6
10:35 2.0 97.4 997.8 11.0 W 27.2 WNW 0.0 268.2 72.9
10:40 2.1 97.4 997.8 8.2 W 29.6 WNW 0.0 267.6 60.9
10:45 2.1 97.4 997.9 14.0 WNW 32.8 W 0.0 266.9 54.0
10:50 2.1 97.3 997.9 6.6 WNW 23.3 NW 0.0 266.3 56.8
10:55 2.1 97.3 997.9 6.9 NW 20.5 NW 0.0 265.7 45.6
11:00 2.1 97.2 997.8 9.8 WNW 28.2 W 0.0 265.2 57.9
11:05 2.2 97.2 997.8 9.0 NW 22.6 NE 0.0 264.6 71.7
11:10 2.2 97.2 997.7 8.4 NW 24.7 NNW 0.0 264.2 93.5
11:15 2.3 97.2 997.6 11.0 NW 39.2 NW 0.0 263.4 128.4
11:20 2.3 97.2 997.5 8.0 WNW 26.8 NW 0.0 262.6 113.3
11:25 2.4 97.2 997.5 8.9 WNW 26.1 N 0.0 261.8 94.2
11:30 2.4 97.0 997.5 9.0 NW 25.8 WNW 0.0 260.9 129.6
11:35 2.5 97.0 997.6 6.2 ENE 21.2 NW 0.0 260.2 118.8
11:40 2.5 97.1 997.6 6.0 NW 20.1 N 0.0 259.3 78.3
11:45 2.6 96.9 997.6 6.4 WNW 21.5 NNW 0.0 258.6 144.8
11:50 2.8 97.0 997.5 6.2 SW 25.8 WSW 0.0 258.0 170.6
11:55 2.9 96.9 997.4 5.7 W 16.6 N 0.0 256.9 113.5
12:00 3.0 96.6 997.4 5.0 W 15.2 NW 0.0 256.0 296.6
12:05 3.0 96.3 997.2 10.9 WNW 28.2 W 0.0 254.4 236.1
12:10 3.3 96.2 997.2 5.9 E 22.6 NW 0.0 253.3 334.8
12:15 3.4 95.6 997.2 5.5 ENE 25.1 W 0.0 251.6 353.2
12:20 3.7 95.2 997.3 5.3 N 21.2 N 0.0 250.0 424.2
12:25 3.9 93.7 997.2 6.3 NNW 18.7 N 0.0 247.9 329.5
12:30 3.9 92.4 997.1 7.4 NW 24.7 N 0.0 246.0 375.5
12:35 3.9 91.0 997.0 8.9 WNW 21.5 NW 0.0 244.0 439.3
12:40 4.1 90.0 996.9 6.1 WNW 21.9 SW 0.0 242.1 450.1
12:45 4.4 89.9 996.8 5.4 WSW 15.9 W 0.0 240.4 370.1
12:50 4.5 88.3 996.7 7.1 NW 19.1 WNW 0.0 238.2 352.0
12:55 4.5 87.5 996.7 6.6 WNW 24.3 NNW 0.0 236.5 438.5
13:00 4.7 87.5 996.7 6.5 ESE 13.8 W 0.0 234.7 311.8
13:05 4.5 86.1 996.8 7.6 WNW 26.1 NNW 0.0 233.0 231.2
13:10 4.3 86.8 996.9 7.4 NW 31.8 NNE 0.0 231.9 181.7
13:15 4.2 86.7 996.8 5.6 NNW 19.4 NNW 0.0 230.9 156.6
13:20 4.3 87.3 996.9 6.8 NNE 21.9 N 0.0 230.2 369.5
13:25 4.5 86.8 997.1 6.5 ENE 16.6 NNE 0.0 228.8 249.9
13:30 4.6 86.4 997.2 4.9 NE 29.6 N 0.0 227.4 358.4
13:35 4.7 85.0 997.3 4.0 NNW 13.4 WNW 0.0 225.5 296.4
13:40 4.6 83.3 997.4 9.9 N 25.1 NNW 0.0 223.7 169.3
13:45 4.4 83.7 997.4 6.4 N 16.9 NNW 0.0 222.6 165.6
13:50 4.3 84.0 997.5 5.6 NNW 14.5 N 0.0 221.8 154.2
13:55 4.3 84.1 997.5 3.7 NNW 14.1 NE 0.0 221.0 131.3
14:00 4.3 84.0 997.5 3.7 NNW 14.1 N 0.0 220.2 89.4
14:05 4.3 83.6 997.5 5.5 N 22.2 N 0.0 219.3 91.4
14:10 4.3 83.3 997.5 5.5 N 15.2 N 0.0 218.5 100.9
14:15 4.2 83.2 997.5 5.7 NNE 15.2 N 0.0 217.9 116.3
14:20 4.2 83.9 997.5 3.6 SE 11.3 WSW 0.0 217.4 114.9
14:25 4.2 83.8 997.6 5.8 E 15.9 NW 0.0 216.7 110.7
14:30 4.1 84.0 997.7 4.5 ESE 9.2 NNW 0.0 216.2 111.5
14:35 4.1 83.6 997.9 3.4 WSW 15.5 NW 0.0 215.5 107.4
14:40 4.1 83.0 997.9 3.4 ESE 10.9 W 0.0 214.8 102.2
14:45 4.1 82.6 998.1 2.8 WNW 10.6 WNW 0.0 214.1 94.8
14:50 4.1 82.7 998.1 3.4 WNW 14.5 WNW 0.0 213.4 83.8
14:55 4.1 83.1 998.2 2.5 NW 8.8 W 0.0 212.9 72.8
15:00 4.0 83.3 998.2 3.9 W 20.8 NNE 0.0 212.4 62.1
15:05 4.0 83.8 998.2 3.2 W 11.6 WNW 0.0 211.9 48.1
15:10 4.0 83.9 998.3 5.4 NNW 16.2 NNW 0.0 211.3 24.3
15:15 4.0 83.7 998.3 5.3 WNW 14.5 WNW 0.0 210.8 24.0
15:20 3.9 83.3 998.3 6.5 WNW 20.5 W 0.0 210.2 42.0
15:25 3.8 83.6 998.3 5.1 W 19.1 WNW 0.0 209.6 45.0
15:30 3.7 84.1 998.4 4.4 SSW 14.8 WNW 0.0 209.3 41.4
15:35 3.6 84.2 998.4 5.4 WNW 21.5 WSW 0.0 208.8 36.6
15:40 3.6 84.1 998.5 6.4 WNW 20.1 WNW 0.0 208.4 31.3
15:45 3.5 83.6 998.6 6.4 WNW 19.8 WNW 0.0 207.9 25.2
15:50 3.4 83.0 998.6 5.4 WNW 16.2 W 0.0 207.3 20.0
15:55 3.3 83.4 998.5 4.3 W 16.6 NW 0.0 207.0 16.6
16:00 3.3 82.7 998.5 5.6 W 19.1 W 0.0 206.5 14.5
16:05 3.3 82.6 998.6 5.6 WNW 16.2 WNW 0.0 206.1 11.6
16:10 3.2 82.7 998.7 7.4 WNW 15.9 WNW 0.0 205.6 9.0
16:15 3.2 83.1 998.7 11.4 W 21.9 WNW 0.0 205.2 6.7
16:20 3.0 83.8 998.8 7.8 NW 19.8 WNW 0.0 204.8 5.4
16:25 2.9 84.2 998.9 6.4 NW 22.9 WNW 0.0 204.5 3.9
16:30 2.9 84.5 998.9 10.3 WNW 20.5 W 0.0 204.2 4.2
16:35 2.8 84.6 998.9 6.9 WNW 17.6 WNW 0.0 203.9 2.1
16:40 2.7 84.7 998.9 7.4 WNW 14.8 NW 0.0 203.6 0.6
16:45 2.6 84.8 999.0 11.5 WNW 19.4 W 0.0 203.3 0.3
16:50 2.6 84.8 999.0 10.4 WNW 23.6 WNW 0.0 203.0 0.2
16:55 2.5 84.6 998.9 12.4 W 22.6 W 0.0 202.7 0.1
17:00 2.4 84.2 998.9 8.7 W 21.2 NW 0.0 202.3 0.1
17:05 2.4 83.8 999.0 4.1 WNW 16.9 NNW 0.0 201.9 0.1
17:10 2.3 84.3 999.0 4.6 ESE 19.4 NW 0.0 201.7 0.1
17:15 2.2 84.1 999.0 4.5 W 14.1 WNW 0.0 201.4 0.1
17:20 2.2 83.9 999.0 3.3 SSE 11.3 SSE 0.0 201.2 0.1
17:25 2.1 84.2 999.1 4.8 E 11.6 N 0.0 200.9 0.1
17:30 2.1 84.1 999.1 5.5 NE 25.1 NW 0.0 200.7 0.1
17:35 2.1 82.8 999.1 3.7 ESE 13.8 NW 0.0 200.4 0.1
17:40 2.1 82.6 999.1 4.8 NE 18.0 NNE 0.0 200.0 0.1
17:45 2.2 81.8 999.1 7.6 NNW 22.6 WNW 0.0 199.6 0.1
17:50 2.2 82.0 999.2 4.0 ESE 10.6 SE 0.0 199.2 0.1
17:55 2.0 83.0 999.3 4.4 SE 8.8 ESE 0.0 199.0 0.1
18:00 1.9 83.8 999.5 6.3 SW 17.6 SW 0.0 198.9 0.1
18:05 2.0 83.5 999.6 9.3 WNW 21.2 WSW 0.0 198.8 0.1
18:10 2.0 83.4 999.6 6.3 WNW 15.5 WNW 0.0 198.5 0.1
18:15 1.9 83.7 999.6 4.3 W 13.8 WNW 0.0 198.3 0.1
18:20 1.8 83.7 999.6 3.2 W 13.4 W 0.0 198.1 0.1
18:25 1.8 83.4 999.7 8.8 WNW 19.4 W 0.0 197.9 0.1
18:30 1.8 83.0 999.8 8.8 WNW 21.2 WNW 0.0 197.6 0.1
18:35 1.7 83.1 999.8 8.4 WNW 23.3 W 0.0 197.3 0.1
18:40 1.5 83.4 999.8 4.8 NNW 12.0 NW 0.0 197.0 0.1
18:45 1.4 83.8 999.8 4.7 WNW 13.1 WSW 0.0 196.8 0.1
18:50 1.3 84.1 999.8 4.4 W 15.2 WNW 0.0 196.6 0.1
18:55 1.2 84.0 999.8 4.5 WNW 14.8 SW 0.0 196.5 0.1
19:00 1.2 83.6 999.9 5.7 W 10.9 NW 0.0 196.3 0.1
19:05 1.2 83.3 1000.0 3.2 NW 12.0 WNW 0.0 196.2 0.1
19:10 1.1 83.2 1000.0 4.7 WNW 16.9 N 0.0 196.0 0.2
19:15 1.1 83.3 999.9 1.2 WNW 7.1 WNW 0.0 195.8 0.1
19:20 0.9 83.8 999.9 3.5 WNW 13.8 W 0.0 195.7 0.1
19:25 0.9 84.1 999.7 3.1 N 9.5 WNW 0.0 195.6 0.1
19:30 0.8 84.3 999.9 2.8 SSW 9.9 WSW 0.0 195.5 0.1
19:35 0.7 85.0 1000.0 4.8 W 13.1 WSW 0.0 195.6 0.2
19:40 0.6 85.7 1000.0 3.8 W 18.0 NW 0.0 195.6 0.1
19:45 0.5 86.0 1000.1 4.3 WNW 16.2 W 0.0 195.6 0.1
19:50 0.5 86.0 1000.2 3.7 WNW 13.1 WNW 0.0 195.5 0.1
19:55 0.5 86.0 1000.2 7.0 W 19.1 WNW 0.0 195.5 0.1
20:00 0.5 85.9 1000.2 10.1 WNW 21.2 WNW 0.0 195.4 0.1
Màxima 4.8 97.9 1001.7 14.0 WNW 40.2 WNW 0.1 291.6 450.1
Mínima -0.7 81.8 996.7 193.5
Total 0.1